sensor_id;sensor_type;location;lat;lon;timestamp;P1;durP1;ratioP1;P2;durP2;ratioP2
78871;SDS011;68247;43.514;1.502;2024-01-30T00:00:21;14.87;;;6.30;;
78871;SDS011;68247;43.514;1.502;2024-01-30T00:02:46;16.40;;;6.67;;
78871;SDS011;68247;43.514;1.502;2024-01-30T00:05:12;17.07;;;6.57;;
78871;SDS011;68247;43.514;1.502;2024-01-30T00:07:37;15.77;;;6.63;;
78871;SDS011;68247;43.514;1.502;2024-01-30T00:10:02;13.18;;;6.20;;
78871;SDS011;68247;43.514;1.502;2024-01-30T00:12:28;15.30;;;6.30;;
78871;SDS011;68247;43.514;1.502;2024-01-30T00:14:53;11.97;;;6.40;;
78871;SDS011;68247;43.514;1.502;2024-01-30T00:17:19;11.43;;;6.55;;
78871;SDS011;68247;43.514;1.502;2024-01-30T00:19:45;10.77;;;6.65;;
78871;SDS011;68247;43.514;1.502;2024-01-30T00:22:11;17.33;;;6.57;;
78871;SDS011;68247;43.514;1.502;2024-01-30T00:24:36;13.53;;;6.00;;
78871;SDS011;68247;43.514;1.502;2024-01-30T00:27:02;13.10;;;6.10;;
78871;SDS011;68247;43.514;1.502;2024-01-30T00:29:27;13.32;;;6.10;;
78871;SDS011;68247;43.514;1.502;2024-01-30T00:31:56;14.48;;;6.43;;
78871;SDS011;68247;43.514;1.502;2024-01-30T00:34:21;18.50;;;6.17;;
78871;SDS011;68247;43.514;1.502;2024-01-30T00:36:47;16.67;;;6.20;;
78871;SDS011;68247;43.514;1.502;2024-01-30T00:39:12;14.17;;;5.80;;
78871;SDS011;68247;43.514;1.502;2024-01-30T00:41:37;13.60;;;6.20;;
78871;SDS011;68247;43.514;1.502;2024-01-30T00:44:03;11.47;;;5.77;;
78871;SDS011;68247;43.514;1.502;2024-01-30T00:46:28;17.50;;;6.43;;
78871;SDS011;68247;43.514;1.502;2024-01-30T00:48:54;13.10;;;6.67;;
78871;SDS011;68247;43.514;1.502;2024-01-30T00:51:19;13.18;;;6.18;;
78871;SDS011;68247;43.514;1.502;2024-01-30T00:53:45;12.45;;;6.22;;
78871;SDS011;68247;43.514;1.502;2024-01-30T00:56:10;12.57;;;6.13;;
78871;SDS011;68247;43.514;1.502;2024-01-30T00:58:35;14.73;;;6.50;;
78871;SDS011;68247;43.514;1.502;2024-01-30T01:01:01;14.97;;;6.10;;
78871;SDS011;68247;43.514;1.502;2024-01-30T01:03:27;14.85;;;6.30;;
78871;SDS011;68247;43.514;1.502;2024-01-30T01:05:52;18.07;;;6.43;;
78871;SDS011;68247;43.514;1.502;2024-01-30T01:08:18;13.33;;;6.07;;
78871;SDS011;68247;43.514;1.502;2024-01-30T01:10:43;16.00;;;5.97;;
78871;SDS011;68247;43.514;1.502;2024-01-30T01:13:08;15.88;;;6.13;;
78871;SDS011;68247;43.514;1.502;2024-01-30T01:15:34;18.63;;;6.23;;
78871;SDS011;68247;43.514;1.502;2024-01-30T01:18:00;15.82;;;6.57;;
78871;SDS011;68247;43.514;1.502;2024-01-30T01:20:25;12.18;;;6.18;;
78871;SDS011;68247;43.514;1.502;2024-01-30T01:22:50;14.33;;;6.27;;
78871;SDS011;68247;43.514;1.502;2024-01-30T01:25:17;13.50;;;5.50;;
78871;SDS011;68247;43.514;1.502;2024-01-30T01:27:43;19.50;;;6.33;;
78871;SDS011;68247;43.514;1.502;2024-01-30T01:30:09;11.32;;;5.53;;
78871;SDS011;68247;43.514;1.502;2024-01-30T01:32:36;12.03;;;5.80;;
78871;SDS011;68247;43.514;1.502;2024-01-30T01:35:01;17.17;;;6.10;;
78871;SDS011;68247;43.514;1.502;2024-01-30T01:37:27;15.02;;;5.82;;
78871;SDS011;68247;43.514;1.502;2024-01-30T01:39:53;15.13;;;5.67;;
78871;SDS011;68247;43.514;1.502;2024-01-30T01:42:18;11.90;;;5.70;;
78871;SDS011;68247;43.514;1.502;2024-01-30T01:44:44;13.13;;;5.80;;
78871;SDS011;68247;43.514;1.502;2024-01-30T01:47:09;16.67;;;6.00;;
78871;SDS011;68247;43.514;1.502;2024-01-30T01:49:34;12.83;;;5.50;;
78871;SDS011;68247;43.514;1.502;2024-01-30T01:52:00;14.53;;;5.73;;
78871;SDS011;68247;43.514;1.502;2024-01-30T01:54:26;15.15;;;7.03;;
78871;SDS011;68247;43.514;1.502;2024-01-30T01:56:52;11.67;;;5.67;;
78871;SDS011;68247;43.514;1.502;2024-01-30T01:59:17;11.32;;;5.72;;
78871;SDS011;68247;43.514;1.502;2024-01-30T02:01:43;12.10;;;5.60;;
78871;SDS011;68247;43.514;1.502;2024-01-30T02:04:10;12.35;;;5.40;;
78871;SDS011;68247;43.514;1.502;2024-01-30T02:06:36;13.37;;;5.57;;
78871;SDS011;68247;43.514;1.502;2024-01-30T02:09:03;14.93;;;5.45;;
78871;SDS011;68247;43.514;1.502;2024-01-30T02:11:29;13.48;;;5.55;;
78871;SDS011;68247;43.514;1.502;2024-01-30T02:13:55;11.50;;;5.30;;
78871;SDS011;68247;43.514;1.502;2024-01-30T02:16:20;15.13;;;5.50;;
78871;SDS011;68247;43.514;1.502;2024-01-30T02:18:45;14.75;;;5.88;;
78871;SDS011;68247;43.514;1.502;2024-01-30T02:21:14;17.13;;;6.25;;
78871;SDS011;68247;43.514;1.502;2024-01-30T02:23:40;14.55;;;5.43;;
78871;SDS011;68247;43.514;1.502;2024-01-30T02:26:06;16.33;;;5.23;;
78871;SDS011;68247;43.514;1.502;2024-01-30T02:28:31;17.50;;;5.88;;
78871;SDS011;68247;43.514;1.502;2024-01-30T02:30:56;10.30;;;5.23;;
78871;SDS011;68247;43.514;1.502;2024-01-30T02:33:22;15.00;;;5.43;;
78871;SDS011;68247;43.514;1.502;2024-01-30T02:35:47;14.40;;;4.90;;
78871;SDS011;68247;43.514;1.502;2024-01-30T02:38:13;13.10;;;5.28;;
78871;SDS011;68247;43.514;1.502;2024-01-30T02:40:40;15.63;;;5.78;;
78871;SDS011;68247;43.514;1.502;2024-01-30T02:43:05;17.70;;;6.50;;
78871;SDS011;68247;43.514;1.502;2024-01-30T02:45:31;10.20;;;4.97;;
78871;SDS011;68247;43.514;1.502;2024-01-30T02:47:56;15.43;;;5.17;;
78871;SDS011;68247;43.514;1.502;2024-01-30T02:50:22;13.38;;;5.03;;
78871;SDS011;68247;43.514;1.502;2024-01-30T02:52:47;17.73;;;5.87;;
78871;SDS011;68247;43.514;1.502;2024-01-30T02:55:12;12.93;;;5.43;;
78871;SDS011;68247;43.514;1.502;2024-01-30T02:57:39;13.00;;;5.28;;
78871;SDS011;68247;43.514;1.502;2024-01-30T03:00:04;13.07;;;5.40;;
78871;SDS011;68247;43.514;1.502;2024-01-30T03:02:31;17.95;;;5.50;;
78871;SDS011;68247;43.514;1.502;2024-01-30T03:04:57;14.20;;;5.25;;
78871;SDS011;68247;43.514;1.502;2024-01-30T03:07:23;13.03;;;5.40;;
78871;SDS011;68247;43.514;1.502;2024-01-30T03:09:48;11.57;;;5.20;;
78871;SDS011;68247;43.514;1.502;2024-01-30T03:12:14;14.07;;;4.97;;
78871;SDS011;68247;43.514;1.502;2024-01-30T03:14:39;14.03;;;5.23;;
78871;SDS011;68247;43.514;1.502;2024-01-30T03:17:05;10.73;;;5.10;;
78871;SDS011;68247;43.514;1.502;2024-01-30T03:19:30;12.80;;;5.03;;
78871;SDS011;68247;43.514;1.502;2024-01-30T03:21:55;17.47;;;5.40;;
78871;SDS011;68247;43.514;1.502;2024-01-30T03:24:21;12.00;;;5.37;;
78871;SDS011;68247;43.514;1.502;2024-01-30T03:26:46;13.90;;;5.37;;
78871;SDS011;68247;43.514;1.502;2024-01-30T03:29:11;11.30;;;5.20;;
78871;SDS011;68247;43.514;1.502;2024-01-30T03:31:37;12.50;;;5.03;;
78871;SDS011;68247;43.514;1.502;2024-01-30T03:34:03;13.77;;;5.30;;
78871;SDS011;68247;43.514;1.502;2024-01-30T03:36:28;10.47;;;4.73;;
78871;SDS011;68247;43.514;1.502;2024-01-30T03:38:54;10.77;;;5.30;;
78871;SDS011;68247;43.514;1.502;2024-01-30T03:41:19;15.57;;;6.00;;
78871;SDS011;68247;43.514;1.502;2024-01-30T03:43:45;14.93;;;5.37;;
78871;SDS011;68247;43.514;1.502;2024-01-30T03:46:13;16.17;;;5.60;;
78871;SDS011;68247;43.514;1.502;2024-01-30T03:48:39;11.65;;;5.38;;
78871;SDS011;68247;43.514;1.502;2024-01-30T03:51:05;11.30;;;5.15;;
78871;SDS011;68247;43.514;1.502;2024-01-30T03:53:30;12.97;;;4.90;;
78871;SDS011;68247;43.514;1.502;2024-01-30T03:55:55;12.93;;;5.67;;
78871;SDS011;68247;43.514;1.502;2024-01-30T03:58:21;15.10;;;5.40;;
78871;SDS011;68247;43.514;1.502;2024-01-30T04:00:46;13.20;;;5.60;;
78871;SDS011;68247;43.514;1.502;2024-01-30T04:03:12;17.23;;;5.03;;
78871;SDS011;68247;43.514;1.502;2024-01-30T04:05:37;14.43;;;4.90;;
78871;SDS011;68247;43.514;1.502;2024-01-30T04:08:03;9.70;;;4.85;;
78871;SDS011;68247;43.514;1.502;2024-01-30T04:10:28;14.30;;;5.53;;
78871;SDS011;68247;43.514;1.502;2024-01-30T04:12:54;11.33;;;5.67;;
78871;SDS011;68247;43.514;1.502;2024-01-30T04:15:19;13.85;;;5.30;;
78871;SDS011;68247;43.514;1.502;2024-01-30T04:17:45;13.48;;;5.78;;
78871;SDS011;68247;43.514;1.502;2024-01-30T04:20:14;14.63;;;5.60;;
78871;SDS011;68247;43.514;1.502;2024-01-30T04:22:41;14.55;;;5.38;;
78871;SDS011;68247;43.514;1.502;2024-01-30T04:25:08;12.98;;;5.20;;
78871;SDS011;68247;43.514;1.502;2024-01-30T04:27:33;16.80;;;5.73;;
78871;SDS011;68247;43.514;1.502;2024-01-30T04:29:59;13.57;;;5.10;;
78871;SDS011;68247;43.514;1.502;2024-01-30T04:32:24;14.35;;;5.32;;
78871;SDS011;68247;43.514;1.502;2024-01-30T04:34:50;12.57;;;5.37;;
78871;SDS011;68247;43.514;1.502;2024-01-30T04:37:15;11.57;;;5.30;;
78871;SDS011;68247;43.514;1.502;2024-01-30T04:39:40;12.90;;;5.40;;
78871;SDS011;68247;43.514;1.502;2024-01-30T04:42:06;12.73;;;5.00;;
78871;SDS011;68247;43.514;1.502;2024-01-30T04:44:31;16.00;;;6.40;;
78871;SDS011;68247;43.514;1.502;2024-01-30T04:46:56;13.15;;;5.53;;
78871;SDS011;68247;43.514;1.502;2024-01-30T04:49:24;16.97;;;5.63;;
78871;SDS011;68247;43.514;1.502;2024-01-30T04:51:49;12.77;;;5.05;;
78871;SDS011;68247;43.514;1.502;2024-01-30T04:54:14;15.27;;;5.47;;
78871;SDS011;68247;43.514;1.502;2024-01-30T04:56:40;13.97;;;6.00;;
78871;SDS011;68247;43.514;1.502;2024-01-30T04:59:05;19.37;;;6.00;;
78871;SDS011;68247;43.514;1.502;2024-01-30T05:01:31;10.60;;;5.97;;
78871;SDS011;68247;43.514;1.502;2024-01-30T05:03:56;13.33;;;5.20;;
78871;SDS011;68247;43.514;1.502;2024-01-30T05:06:27;19.65;;;5.55;;
78871;SDS011;68247;43.514;1.502;2024-01-30T05:08:53;24.17;;;5.78;;
78871;SDS011;68247;43.514;1.502;2024-01-30T05:11:18;13.47;;;4.97;;
78871;SDS011;68247;43.514;1.502;2024-01-30T05:13:44;13.47;;;5.60;;
78871;SDS011;68247;43.514;1.502;2024-01-30T05:16:09;13.27;;;5.10;;
78871;SDS011;68247;43.514;1.502;2024-01-30T05:18:35;11.77;;;5.70;;
78871;SDS011;68247;43.514;1.502;2024-01-30T05:21:01;19.47;;;5.47;;
78871;SDS011;68247;43.514;1.502;2024-01-30T05:23:27;12.07;;;4.75;;
78871;SDS011;68247;43.514;1.502;2024-01-30T05:25:52;12.93;;;4.83;;
78871;SDS011;68247;43.514;1.502;2024-01-30T05:28:18;17.93;;;5.50;;
78871;SDS011;68247;43.514;1.502;2024-01-30T05:30:43;14.13;;;5.27;;
78871;SDS011;68247;43.514;1.502;2024-01-30T05:33:09;11.80;;;4.77;;
78871;SDS011;68247;43.514;1.502;2024-01-30T05:35:34;14.65;;;5.22;;
78871;SDS011;68247;43.514;1.502;2024-01-30T05:38:00;15.13;;;5.03;;
78871;SDS011;68247;43.514;1.502;2024-01-30T05:40:25;13.93;;;5.43;;
78871;SDS011;68247;43.514;1.502;2024-01-30T05:42:50;12.23;;;5.53;;
78871;SDS011;68247;43.514;1.502;2024-01-30T05:45:16;16.38;;;5.10;;
78871;SDS011;68247;43.514;1.502;2024-01-30T05:47:41;17.07;;;5.27;;
78871;SDS011;68247;43.514;1.502;2024-01-30T05:50:07;13.87;;;4.70;;
78871;SDS011;68247;43.514;1.502;2024-01-30T05:52:32;13.00;;;4.93;;
78871;SDS011;68247;43.514;1.502;2024-01-30T05:54:58;12.57;;;4.73;;
78871;SDS011;68247;43.514;1.502;2024-01-30T05:57:23;16.27;;;5.70;;
78871;SDS011;68247;43.514;1.502;2024-01-30T05:59:48;11.37;;;4.90;;
78871;SDS011;68247;43.514;1.502;2024-01-30T06:02:16;15.48;;;5.38;;
78871;SDS011;68247;43.514;1.502;2024-01-30T06:04:41;13.30;;;5.13;;
78871;SDS011;68247;43.514;1.502;2024-01-30T06:07:07;16.60;;;5.50;;
78871;SDS011;68247;43.514;1.502;2024-01-30T06:09:33;13.80;;;5.13;;
78871;SDS011;68247;43.514;1.502;2024-01-30T06:11:58;17.33;;;5.32;;
78871;SDS011;68247;43.514;1.502;2024-01-30T06:14:23;13.33;;;5.50;;
78871;SDS011;68247;43.514;1.502;2024-01-30T06:16:49;15.00;;;5.20;;
78871;SDS011;68247;43.514;1.502;2024-01-30T06:19:14;15.83;;;5.57;;
78871;SDS011;68247;43.514;1.502;2024-01-30T06:21:40;15.93;;;6.65;;
78871;SDS011;68247;43.514;1.502;2024-01-30T06:24:06;14.93;;;5.40;;
78871;SDS011;68247;43.514;1.502;2024-01-30T06:26:31;12.07;;;4.95;;
78871;SDS011;68247;43.514;1.502;2024-01-30T06:28:56;12.40;;;5.10;;
78871;SDS011;68247;43.514;1.502;2024-01-30T06:31:22;11.97;;;4.90;;
78871;SDS011;68247;43.514;1.502;2024-01-30T06:33:47;9.53;;;4.90;;
78871;SDS011;68247;43.514;1.502;2024-01-30T06:36:13;15.25;;;5.70;;
78871;SDS011;68247;43.514;1.502;2024-01-30T06:38:39;16.15;;;5.47;;
78871;SDS011;68247;43.514;1.502;2024-01-30T06:41:04;14.30;;;4.53;;
78871;SDS011;68247;43.514;1.502;2024-01-30T06:43:29;14.48;;;5.57;;
78871;SDS011;68247;43.514;1.502;2024-01-30T06:45:55;14.13;;;5.07;;
78871;SDS011;68247;43.514;1.502;2024-01-30T06:48:20;12.77;;;5.50;;
78871;SDS011;68247;43.514;1.502;2024-01-30T06:50:45;14.27;;;5.20;;
78871;SDS011;68247;43.514;1.502;2024-01-30T06:53:11;14.13;;;5.63;;
78871;SDS011;68247;43.514;1.502;2024-01-30T06:55:36;19.50;;;5.40;;
78871;SDS011;68247;43.514;1.502;2024-01-30T06:58:02;15.27;;;5.40;;
78871;SDS011;68247;43.514;1.502;2024-01-30T07:00:27;13.38;;;5.55;;
78871;SDS011;68247;43.514;1.502;2024-01-30T07:02:53;14.03;;;5.10;;
78871;SDS011;68247;43.514;1.502;2024-01-30T07:05:18;15.20;;;4.77;;
78871;SDS011;68247;43.514;1.502;2024-01-30T07:07:43;13.53;;;4.83;;
78871;SDS011;68247;43.514;1.502;2024-01-30T07:10:09;13.45;;;5.03;;
78871;SDS011;68247;43.514;1.502;2024-01-30T07:12:34;17.60;;;5.30;;
78871;SDS011;68247;43.514;1.502;2024-01-30T07:15:00;14.57;;;4.87;;
78871;SDS011;68247;43.514;1.502;2024-01-30T07:17:26;15.90;;;5.13;;
78871;SDS011;68247;43.514;1.502;2024-01-30T07:19:51;20.33;;;5.10;;
78871;SDS011;68247;43.514;1.502;2024-01-30T07:22:16;18.13;;;5.10;;
78871;SDS011;68247;43.514;1.502;2024-01-30T07:24:42;15.70;;;5.37;;
78871;SDS011;68247;43.514;1.502;2024-01-30T07:27:10;14.68;;;5.45;;
78871;SDS011;68247;43.514;1.502;2024-01-30T07:29:35;14.00;;;5.23;;
78871;SDS011;68247;43.514;1.502;2024-01-30T07:32:00;13.90;;;5.80;;
78871;SDS011;68247;43.514;1.502;2024-01-30T07:34:26;18.30;;;5.10;;
78871;SDS011;68247;43.514;1.502;2024-01-30T07:36:52;13.20;;;4.80;;
78871;SDS011;68247;43.514;1.502;2024-01-30T07:39:18;10.70;;;4.77;;
78871;SDS011;68247;43.514;1.502;2024-01-30T07:41:43;16.92;;;5.05;;
78871;SDS011;68247;43.514;1.502;2024-01-30T07:44:08;15.73;;;5.13;;
78871;SDS011;68247;43.514;1.502;2024-01-30T07:46:34;14.97;;;6.57;;
78871;SDS011;68247;43.514;1.502;2024-01-30T07:48:59;15.33;;;5.10;;
78871;SDS011;68247;43.514;1.502;2024-01-30T07:51:25;13.45;;;5.00;;
78871;SDS011;68247;43.514;1.502;2024-01-30T07:53:53;13.93;;;5.10;;
78871;SDS011;68247;43.514;1.502;2024-01-30T07:56:19;14.02;;;4.85;;
78871;SDS011;68247;43.514;1.502;2024-01-30T07:58:44;14.90;;;5.27;;
78871;SDS011;68247;43.514;1.502;2024-01-30T08:01:10;12.80;;;4.90;;
78871;SDS011;68247;43.514;1.502;2024-01-30T08:03:35;12.68;;;4.70;;
78871;SDS011;68247;43.514;1.502;2024-01-30T08:06:02;15.57;;;5.07;;
78871;SDS011;68247;43.514;1.502;2024-01-30T08:08:28;12.43;;;5.20;;
78871;SDS011;68247;43.514;1.502;2024-01-30T08:10:53;12.17;;;4.80;;
78871;SDS011;68247;43.514;1.502;2024-01-30T08:13:18;10.55;;;4.82;;
78871;SDS011;68247;43.514;1.502;2024-01-30T08:15:44;14.10;;;5.13;;
78871;SDS011;68247;43.514;1.502;2024-01-30T08:18:09;11.47;;;4.33;;
78871;SDS011;68247;43.514;1.502;2024-01-30T08:20:35;18.87;;;4.70;;
78871;SDS011;68247;43.514;1.502;2024-01-30T08:23:00;10.90;;;4.33;;
78871;SDS011;68247;43.514;1.502;2024-01-30T08:25:26;14.00;;;4.40;;
78871;SDS011;68247;43.514;1.502;2024-01-30T08:27:51;12.02;;;4.35;;
78871;SDS011;68247;43.514;1.502;2024-01-30T08:30:16;9.77;;;4.47;;
78871;SDS011;68247;43.514;1.502;2024-01-30T08:32:42;14.43;;;4.57;;
78871;SDS011;68247;43.514;1.502;2024-01-30T08:35:07;16.98;;;4.93;;
78871;SDS011;68247;43.514;1.502;2024-01-30T08:37:34;12.73;;;4.30;;
78871;SDS011;68247;43.514;1.502;2024-01-30T08:39:59;16.25;;;4.85;;
78871;SDS011;68247;43.514;1.502;2024-01-30T08:42:25;11.77;;;4.60;;
78871;SDS011;68247;43.514;1.502;2024-01-30T08:44:51;14.30;;;4.47;;
78871;SDS011;68247;43.514;1.502;2024-01-30T08:47:18;10.15;;;5.05;;
78871;SDS011;68247;43.514;1.502;2024-01-30T08:49:43;15.45;;;4.72;;
78871;SDS011;68247;43.514;1.502;2024-01-30T08:52:09;12.17;;;4.80;;
78871;SDS011;68247;43.514;1.502;2024-01-30T08:54:36;10.77;;;4.05;;
78871;SDS011;68247;43.514;1.502;2024-01-30T08:57:01;12.97;;;4.20;;
78871;SDS011;68247;43.514;1.502;2024-01-30T08:59:27;13.55;;;4.32;;
78871;SDS011;68247;43.514;1.502;2024-01-30T09:01:52;16.23;;;4.33;;
78871;SDS011;68247;43.514;1.502;2024-01-30T09:04:20;10.55;;;4.57;;
78871;SDS011;68247;43.514;1.502;2024-01-30T09:06:48;16.13;;;5.25;;
78871;SDS011;68247;43.514;1.502;2024-01-30T09:09:14;10.53;;;4.40;;
78871;SDS011;68247;43.514;1.502;2024-01-30T09:11:39;12.93;;;4.50;;
78871;SDS011;68247;43.514;1.502;2024-01-30T09:14:05;11.65;;;4.47;;
78871;SDS011;68247;43.514;1.502;2024-01-30T09:16:30;12.20;;;3.73;;
78871;SDS011;68247;43.514;1.502;2024-01-30T09:18:56;11.60;;;4.17;;
78871;SDS011;68247;43.514;1.502;2024-01-30T09:21:21;9.48;;;3.70;;
78871;SDS011;68247;43.514;1.502;2024-01-30T09:23:46;10.50;;;4.72;;
78871;SDS011;68247;43.514;1.502;2024-01-30T09:26:12;17.17;;;4.70;;
78871;SDS011;68247;43.514;1.502;2024-01-30T09:28:37;13.00;;;4.60;;
78871;SDS011;68247;43.514;1.502;2024-01-30T09:31:03;12.07;;;4.47;;
78871;SDS011;68247;43.514;1.502;2024-01-30T09:33:29;11.03;;;4.17;;
78871;SDS011;68247;43.514;1.502;2024-01-30T09:35:54;9.53;;;4.23;;
78871;SDS011;68247;43.514;1.502;2024-01-30T09:38:19;12.13;;;4.20;;
78871;SDS011;68247;43.514;1.502;2024-01-30T09:40:45;10.40;;;3.70;;
78871;SDS011;68247;43.514;1.502;2024-01-30T09:43:15;11.73;;;4.13;;
78871;SDS011;68247;43.514;1.502;2024-01-30T09:45:42;10.02;;;3.90;;
78871;SDS011;68247;43.514;1.502;2024-01-30T09:48:10;7.90;;;3.63;;
78871;SDS011;68247;43.514;1.502;2024-01-30T09:50:35;10.57;;;3.70;;
78871;SDS011;68247;43.514;1.502;2024-01-30T09:53:02;8.93;;;4.13;;
78871;SDS011;68247;43.514;1.502;2024-01-30T09:55:29;11.23;;;3.53;;
78871;SDS011;68247;43.514;1.502;2024-01-30T09:57:54;13.02;;;3.95;;
78871;SDS011;68247;43.514;1.502;2024-01-30T10:00:20;14.93;;;4.47;;
78871;SDS011;68247;43.514;1.502;2024-01-30T10:02:47;10.02;;;3.88;;
78871;SDS011;68247;43.514;1.502;2024-01-30T10:05:15;13.33;;;4.30;;
78871;SDS011;68247;43.514;1.502;2024-01-30T10:07:49;10.88;;;3.97;;
78871;SDS011;68247;43.514;1.502;2024-01-30T10:10:17;11.23;;;4.03;;
78871;SDS011;68247;43.514;1.502;2024-01-30T10:12:42;11.07;;;4.03;;
78871;SDS011;68247;43.514;1.502;2024-01-30T10:15:08;9.00;;;4.00;;
78871;SDS011;68247;43.514;1.502;2024-01-30T10:17:34;9.80;;;3.97;;
78871;SDS011;68247;43.514;1.502;2024-01-30T10:20:04;9.98;;;3.50;;
78871;SDS011;68247;43.514;1.502;2024-01-30T10:22:30;12.60;;;4.20;;
78871;SDS011;68247;43.514;1.502;2024-01-30T10:24:55;11.27;;;3.83;;
78871;SDS011;68247;43.514;1.502;2024-01-30T10:27:27;9.38;;;3.90;;
78871;SDS011;68247;43.514;1.502;2024-01-30T10:29:54;8.73;;;3.90;;
78871;SDS011;68247;43.514;1.502;2024-01-30T10:32:20;8.13;;;3.38;;
78871;SDS011;68247;43.514;1.502;2024-01-30T10:34:46;10.32;;;3.97;;
78871;SDS011;68247;43.514;1.502;2024-01-30T10:37:11;9.97;;;4.30;;
78871;SDS011;68247;43.514;1.502;2024-01-30T10:39:40;11.75;;;3.97;;
78871;SDS011;68247;43.514;1.502;2024-01-30T10:42:06;8.97;;;3.87;;
78871;SDS011;68247;43.514;1.502;2024-01-30T10:44:36;11.13;;;3.78;;
78871;SDS011;68247;43.514;1.502;2024-01-30T10:47:03;9.35;;;3.58;;
78871;SDS011;68247;43.514;1.502;2024-01-30T10:49:33;10.10;;;4.20;;
78871;SDS011;68247;43.514;1.502;2024-01-30T10:51:58;11.23;;;4.20;;
78871;SDS011;68247;43.514;1.502;2024-01-30T10:54:24;16.05;;;4.10;;
78871;SDS011;68247;43.514;1.502;2024-01-30T10:56:50;8.65;;;3.55;;
78871;SDS011;68247;43.514;1.502;2024-01-30T10:59:16;11.50;;;4.20;;
78871;SDS011;68247;43.514;1.502;2024-01-30T11:01:41;8.50;;;3.38;;
78871;SDS011;68247;43.514;1.502;2024-01-30T11:04:07;17.43;;;4.30;;
78871;SDS011;68247;43.514;1.502;2024-01-30T11:06:33;10.57;;;4.30;;
78871;SDS011;68247;43.514;1.502;2024-01-30T11:09:09;13.60;;;4.15;;
78871;SDS011;68247;43.514;1.502;2024-01-30T11:11:55;11.05;;;3.85;;
78871;SDS011;68247;43.514;1.502;2024-01-30T11:14:29;13.55;;;4.40;;
78871;SDS011;68247;43.514;1.502;2024-01-30T11:16:58;11.45;;;4.15;;
78871;SDS011;68247;43.514;1.502;2024-01-30T11:19:24;10.00;;;3.65;;
78871;SDS011;68247;43.514;1.502;2024-01-30T11:21:51;9.13;;;3.97;;
78871;SDS011;68247;43.514;1.502;2024-01-30T11:24:22;8.93;;;3.45;;
78871;SDS011;68247;43.514;1.502;2024-01-30T11:26:54;10.02;;;4.10;;
78871;SDS011;68247;43.514;1.502;2024-01-30T11:29:24;10.48;;;4.15;;
78871;SDS011;68247;43.514;1.502;2024-01-30T11:31:57;9.90;;;3.67;;
78871;SDS011;68247;43.514;1.502;2024-01-30T11:34:23;11.63;;;4.00;;
78871;SDS011;68247;43.514;1.502;2024-01-30T11:36:58;9.40;;;3.60;;
78871;SDS011;68247;43.514;1.502;2024-01-30T11:39:25;10.40;;;4.20;;
78871;SDS011;68247;43.514;1.502;2024-01-30T11:41:54;9.13;;;3.47;;
78871;SDS011;68247;43.514;1.502;2024-01-30T11:44:20;11.10;;;3.65;;
78871;SDS011;68247;43.514;1.502;2024-01-30T11:46:46;10.85;;;3.72;;
78871;SDS011;68247;43.514;1.502;2024-01-30T11:49:13;9.87;;;3.40;;
78871;SDS011;68247;43.514;1.502;2024-01-30T11:51:38;7.97;;;3.80;;
78871;SDS011;68247;43.514;1.502;2024-01-30T11:54:04;8.93;;;3.40;;
78871;SDS011;68247;43.514;1.502;2024-01-30T11:56:29;10.27;;;3.70;;
78871;SDS011;68247;43.514;1.502;2024-01-30T11:58:55;10.88;;;3.28;;
78871;SDS011;68247;43.514;1.502;2024-01-30T12:01:20;11.50;;;3.50;;
78871;SDS011;68247;43.514;1.502;2024-01-30T12:03:49;9.23;;;3.70;;
78871;SDS011;68247;43.514;1.502;2024-01-30T12:06:15;7.53;;;3.30;;
78871;SDS011;68247;43.514;1.502;2024-01-30T12:08:41;9.23;;;4.03;;
78871;SDS011;68247;43.514;1.502;2024-01-30T12:11:07;9.73;;;3.47;;
78871;SDS011;68247;43.514;1.502;2024-01-30T12:13:32;10.27;;;3.40;;
78871;SDS011;68247;43.514;1.502;2024-01-30T12:15:58;9.38;;;3.88;;
78871;SDS011;68247;43.514;1.502;2024-01-30T12:18:23;8.50;;;3.37;;
78871;SDS011;68247;43.514;1.502;2024-01-30T12:20:58;12.10;;;3.13;;
78871;SDS011;68247;43.514;1.502;2024-01-30T12:23:24;8.40;;;3.60;;
78871;SDS011;68247;43.514;1.502;2024-01-30T12:25:51;9.82;;;3.05;;
78871;SDS011;68247;43.514;1.502;2024-01-30T12:28:17;10.70;;;3.75;;
78871;SDS011;68247;43.514;1.502;2024-01-30T12:30:42;8.93;;;3.20;;
78871;SDS011;68247;43.514;1.502;2024-01-30T12:33:07;9.40;;;3.20;;
78871;SDS011;68247;43.514;1.502;2024-01-30T12:35:35;8.02;;;3.38;;
78871;SDS011;68247;43.514;1.502;2024-01-30T12:38:00;12.83;;;4.03;;
78871;SDS011;68247;43.514;1.502;2024-01-30T12:40:26;7.73;;;3.50;;
78871;SDS011;68247;43.514;1.502;2024-01-30T12:42:51;10.23;;;3.30;;
78871;SDS011;68247;43.514;1.502;2024-01-30T12:45:17;8.80;;;3.40;;
78871;SDS011;68247;43.514;1.502;2024-01-30T12:47:46;9.77;;;3.50;;
78871;SDS011;68247;43.514;1.502;2024-01-30T12:50:12;11.10;;;3.90;;
78871;SDS011;68247;43.514;1.502;2024-01-30T12:52:40;10.00;;;3.83;;
78871;SDS011;68247;43.514;1.502;2024-01-30T12:55:06;11.13;;;3.80;;
78871;SDS011;68247;43.514;1.502;2024-01-30T12:57:31;8.88;;;3.55;;
78871;SDS011;68247;43.514;1.502;2024-01-30T12:59:57;9.47;;;3.70;;
78871;SDS011;68247;43.514;1.502;2024-01-30T13:02:23;9.82;;;3.40;;
78871;SDS011;68247;43.514;1.502;2024-01-30T13:04:48;9.33;;;3.10;;
78871;SDS011;68247;43.514;1.502;2024-01-30T13:07:13;7.47;;;2.80;;
78871;SDS011;68247;43.514;1.502;2024-01-30T13:09:39;7.60;;;3.13;;
78871;SDS011;68247;43.514;1.502;2024-01-30T13:12:04;11.17;;;3.40;;
78871;SDS011;68247;43.514;1.502;2024-01-30T13:14:30;9.88;;;3.25;;
78871;SDS011;68247;43.514;1.502;2024-01-30T13:16:55;9.17;;;3.60;;
78871;SDS011;68247;43.514;1.502;2024-01-30T13:19:21;8.33;;;3.43;;
78871;SDS011;68247;43.514;1.502;2024-01-30T13:21:46;9.27;;;3.67;;
78871;SDS011;68247;43.514;1.502;2024-01-30T13:24:12;10.18;;;3.72;;
78871;SDS011;68247;43.514;1.502;2024-01-30T13:26:38;9.02;;;3.58;;
78871;SDS011;68247;43.514;1.502;2024-01-30T13:29:04;9.57;;;3.63;;
78871;SDS011;68247;43.514;1.502;2024-01-30T13:31:29;8.60;;;3.33;;
78871;SDS011;68247;43.514;1.502;2024-01-30T13:33:55;11.77;;;3.73;;
78871;SDS011;68247;43.514;1.502;2024-01-30T13:36:20;10.77;;;3.73;;
78871;SDS011;68247;43.514;1.502;2024-01-30T13:38:46;9.45;;;4.18;;
78871;SDS011;68247;43.514;1.502;2024-01-30T13:41:12;11.80;;;3.80;;
78871;SDS011;68247;43.514;1.502;2024-01-30T13:43:37;9.02;;;3.63;;
78871;SDS011;68247;43.514;1.502;2024-01-30T13:46:03;9.57;;;3.80;;
78871;SDS011;68247;43.514;1.502;2024-01-30T13:48:28;8.20;;;3.67;;
78871;SDS011;68247;43.514;1.502;2024-01-30T13:50:55;9.50;;;3.72;;
78871;SDS011;68247;43.514;1.502;2024-01-30T13:53:20;10.10;;;3.80;;
78871;SDS011;68247;43.514;1.502;2024-01-30T13:55:46;7.45;;;3.63;;
78871;SDS011;68247;43.514;1.502;2024-01-30T13:58:12;7.33;;;3.73;;
78871;SDS011;68247;43.514;1.502;2024-01-30T14:00:37;8.38;;;3.60;;
78871;SDS011;68247;43.514;1.502;2024-01-30T14:03:03;10.53;;;3.90;;
78871;SDS011;68247;43.514;1.502;2024-01-30T14:05:29;6.43;;;3.40;;
78871;SDS011;68247;43.514;1.502;2024-01-30T14:07:55;7.87;;;3.33;;
78871;SDS011;68247;43.514;1.502;2024-01-30T14:10:21;8.88;;;3.78;;
78871;SDS011;68247;43.514;1.502;2024-01-30T14:12:46;7.60;;;3.47;;
78871;SDS011;68247;43.514;1.502;2024-01-30T14:15:15;9.23;;;4.03;;
78871;SDS011;68247;43.514;1.502;2024-01-30T14:17:43;11.38;;;3.55;;
78871;SDS011;68247;43.514;1.502;2024-01-30T14:20:09;9.23;;;3.92;;
78871;SDS011;68247;43.514;1.502;2024-01-30T14:22:35;9.30;;;3.60;;
78871;SDS011;68247;43.514;1.502;2024-01-30T14:25:01;9.25;;;3.85;;
78871;SDS011;68247;43.514;1.502;2024-01-30T14:27:28;8.95;;;3.70;;
78871;SDS011;68247;43.514;1.502;2024-01-30T14:29:55;9.37;;;3.90;;